Standish, Michigan
Current Conditions -  °F | °C
As of 2:52 AM on Sunday 26 Oct 2014 (Local Time) from KIKW Reporting Station
Clear Clear  
Wind Chill: 46°   Ceiling: Unl
Heat Index: 46°   Visibility: 10mi
Dew Point: 31°   Wind: 3mph
Humidity: 57%   Direction: 250°WSW
Pressure: 29.83"   Gusts: NA
Location:  43.98°N, 83.96°W
Report Text: KIKW 260652Z AUTO 25003KT 10SM CLR 08/M01 A2983 RMK AO2 T00751006
Loading
Personal Weather Stations






























Interactive Weather Map
Tropical Storm Tracking
New forecast layout! Learn more

10-Day Weather Forecast

Advertisements
Track Severe Weather on mobile